createdAt,value
2018-05-11T00:00:57.882Z,3.30
2018-05-11T00:01:57.797Z,3.00
2018-05-11T00:02:57.731Z,2.80
2018-05-11T00:03:57.688Z,2.90
2018-05-11T00:04:57.619Z,3.20
2018-05-11T00:05:57.539Z,3.00
2018-05-11T00:06:57.477Z,3.00
2018-05-11T00:07:57.416Z,3.10
2018-05-11T00:08:57.342Z,2.80
2018-05-11T00:09:57.288Z,2.70
2018-05-11T00:10:57.215Z,2.70
2018-05-11T00:11:57.148Z,2.90
2018-05-11T00:12:57.079Z,3.00
2018-05-11T00:13:57.024Z,3.00
2018-05-11T00:14:56.941Z,3.00
2018-05-11T00:15:56.881Z,2.90
2018-05-11T00:16:56.812Z,3.40
2018-05-11T00:17:56.759Z,3.40
2018-05-11T00:18:56.682Z,2.70
2018-05-11T00:19:56.607Z,2.90
2018-05-11T00:20:56.553Z,3.20
2018-05-11T00:21:56.494Z,3.00
2018-05-11T00:22:56.409Z,3.20
2018-05-11T00:23:56.354Z,3.10
2018-05-11T00:24:56.274Z,3.40
2018-05-11T00:25:56.210Z,3.00
2018-05-11T00:26:56.145Z,3.00
2018-05-11T00:27:56.082Z,2.80
2018-05-11T00:28:56.024Z,2.90
2018-05-11T00:29:55.950Z,3.10
2018-05-11T00:30:55.883Z,3.10
2018-05-11T00:31:55.828Z,3.10
2018-05-11T00:32:55.753Z,3.20
2018-05-11T00:33:55.700Z,2.90
2018-05-11T00:34:55.619Z,3.20
2018-05-11T00:35:55.567Z,3.10
2018-05-11T00:36:55.500Z,3.20
2018-05-11T00:37:55.413Z,3.10
2018-05-11T00:38:55.365Z,2.90
2018-05-11T00:39:55.282Z,3.00
2018-05-11T00:40:55.213Z,3.10
2018-05-11T00:41:55.169Z,2.70
2018-05-11T00:42:55.098Z,3.10
2018-05-11T00:43:55.020Z,2.80
2018-05-11T00:44:54.953Z,3.20
2018-05-11T00:45:54.891Z,2.70
2018-05-11T00:46:54.818Z,3.00
2018-05-11T00:47:54.749Z,3.10
2018-05-11T00:48:54.696Z,2.90
2018-05-11T00:49:54.634Z,3.00
2018-05-11T00:50:54.566Z,3.30
2018-05-11T00:51:54.492Z,3.20
2018-05-11T00:52:54.422Z,2.90
2018-05-11T00:53:54.353Z,3.00
2018-05-11T00:54:54.290Z,3.50
2018-05-11T00:55:54.222Z,3.30
2018-05-11T00:56:54.159Z,3.10
2018-05-11T00:57:54.094Z,2.90
2018-05-11T00:58:54.030Z,3.30
2018-05-11T00:59:53.951Z,3.10
2018-05-11T01:00:53.879Z,2.90
2018-05-11T01:01:53.831Z,3.20
2018-05-11T01:02:53.764Z,3.10
2018-05-11T01:03:53.688Z,3.00
2018-05-11T01:04:53.620Z,2.80
2018-05-11T01:05:53.569Z,3.00
2018-05-11T01:06:53.489Z,3.10
2018-05-11T01:07:53.433Z,2.90
2018-05-11T01:08:53.343Z,3.00
2018-05-11T01:09:53.301Z,3.20
2018-05-11T01:10:53.238Z,2.90
2018-05-11T01:11:53.146Z,2.90
2018-05-11T01:12:53.090Z,2.90
2018-05-11T01:13:53.030Z,3.00
2018-05-11T01:14:52.945Z,3.00
2018-05-11T01:15:52.881Z,3.10
2018-05-11T01:16:52.823Z,3.40
2018-05-11T01:17:52.832Z,3.10
2018-05-11T01:18:52.687Z,2.90
2018-05-11T01:19:52.634Z,3.40
2018-05-11T01:20:52.562Z,3.20
2018-05-11T01:21:52.487Z,3.10
2018-05-11T01:22:52.427Z,3.10
2018-05-11T01:23:52.355Z,3.40
2018-05-11T01:24:52.285Z,3.00
2018-05-11T01:25:52.230Z,3.00
2018-05-11T01:26:52.159Z,3.30
2018-05-11T01:27:52.086Z,3.00
2018-05-11T01:28:52.023Z,3.00
2018-05-11T01:29:51.961Z,2.90
2018-05-11T01:30:51.886Z,2.80
2018-05-11T01:31:51.836Z,3.00
2018-05-11T01:32:51.760Z,3.30
2018-05-11T01:33:51.683Z,2.90
2018-05-11T01:34:51.610Z,2.80
2018-05-11T01:35:51.548Z,3.00
2018-05-11T01:36:51.479Z,3.30
2018-05-11T01:37:51.421Z,3.00
2018-05-11T01:38:51.360Z,2.90
2018-05-11T01:39:51.337Z,3.20
2018-05-11T01:40:51.217Z,2.90
2018-05-11T01:41:51.152Z,3.20
2018-05-11T01:42:51.096Z,2.80
2018-05-11T01:43:51.023Z,3.10
2018-05-11T01:44:50.966Z,2.80
2018-05-11T01:45:50.890Z,2.70
2018-05-11T01:46:50.831Z,3.00
2018-05-11T01:47:50.762Z,2.90
2018-05-11T01:48:50.787Z,2.80
2018-05-11T01:49:50.630Z,3.00
2018-05-11T01:50:50.557Z,3.00
2018-05-11T01:51:50.499Z,3.00
2018-05-11T01:52:50.423Z,2.90
2018-05-11T01:53:50.359Z,3.10
2018-05-11T01:54:50.291Z,3.00
2018-05-11T01:55:50.213Z,3.00
2018-05-11T01:56:50.149Z,3.00
2018-05-11T01:57:50.083Z,3.00
2018-05-11T01:58:50.022Z,2.90
2018-05-11T01:59:49.957Z,2.90
2018-05-11T02:00:49.897Z,2.70
2018-05-11T02:01:49.831Z,2.70
2018-05-11T02:02:49.769Z,3.10
2018-05-11T02:03:49.701Z,3.00
2018-05-11T02:04:49.631Z,2.90
2018-05-11T02:05:49.571Z,2.70
2018-05-11T02:06:49.489Z,3.10
2018-05-11T02:07:49.428Z,2.90
2018-05-11T02:08:49.364Z,2.70
2018-05-11T02:09:49.291Z,2.80
2018-05-11T02:10:49.229Z,2.90
2018-05-11T02:11:49.161Z,3.00
2018-05-11T02:12:49.109Z,3.00
2018-05-11T02:13:49.025Z,2.90
2018-05-11T02:14:48.952Z,2.80
2018-05-11T02:15:48.893Z,2.80
2018-05-11T02:16:48.839Z,3.10
2018-05-11T02:17:48.769Z,2.90
2018-05-11T02:18:48.705Z,2.50
2018-05-11T02:19:48.627Z,2.60
2018-05-11T02:20:48.555Z,2.60
2018-05-11T02:21:48.492Z,3.10
2018-05-11T02:22:48.436Z,3.00
2018-05-11T02:23:48.357Z,3.10
2018-05-11T02:24:48.302Z,2.70
2018-05-11T02:25:48.223Z,3.00
2018-05-11T02:26:48.168Z,3.10
2018-05-11T02:27:48.092Z,2.60
2018-05-11T02:28:48.037Z,2.90
2018-05-11T02:29:47.963Z,2.70
2018-05-11T02:30:47.912Z,3.00
2018-05-11T02:31:47.826Z,3.00
2018-05-11T02:32:47.761Z,2.80
2018-05-11T02:33:47.702Z,2.80
2018-05-11T02:34:47.638Z,2.80
2018-05-11T02:35:47.562Z,3.00
2018-05-11T02:36:47.489Z,3.20
2018-05-11T02:37:47.425Z,2.80
2018-05-11T02:38:47.351Z,2.90
2018-05-11T02:39:47.296Z,2.90
2018-05-11T02:40:47.232Z,2.80
2018-05-11T02:41:47.211Z,2.80
2018-05-11T02:42:47.100Z,2.90
2018-05-11T02:43:47.036Z,3.10
2018-05-11T02:44:46.964Z,2.90
2018-05-11T02:45:46.894Z,2.50
2018-05-11T02:46:46.826Z,2.90
2018-05-11T02:47:46.766Z,3.00
2018-05-11T02:48:46.696Z,2.60
2018-05-11T02:49:46.665Z,2.60
2018-05-11T02:50:46.605Z,2.70
2018-05-11T02:51:46.483Z,2.60
2018-05-11T02:52:46.440Z,2.70
2018-05-11T02:53:46.349Z,2.70
2018-05-11T02:54:46.306Z,2.50
2018-05-11T02:55:46.231Z,2.70
2018-05-11T02:56:46.161Z,2.90
2018-05-11T02:57:46.090Z,2.90
2018-05-11T02:58:46.022Z,2.70
2018-05-11T02:59:45.966Z,2.80
2018-05-11T03:00:45.917Z,3.10
2018-05-11T03:01:45.895Z,2.70
2018-05-11T03:02:45.803Z,2.90
2018-05-11T03:03:45.692Z,3.00
2018-05-11T03:04:45.613Z,2.90
2018-05-11T03:05:45.570Z,3.10
2018-05-11T03:06:45.492Z,3.00
2018-05-11T03:07:45.420Z,2.90
2018-05-11T03:08:45.355Z,2.80
2018-05-11T03:09:45.285Z,3.10
2018-05-11T03:10:45.222Z,3.00
2018-05-11T03:11:45.161Z,3.00
2018-05-11T03:12:45.124Z,2.80
2018-05-11T03:13:45.025Z,3.10
2018-05-11T03:14:44.959Z,3.00
2018-05-11T03:15:44.885Z,2.80
2018-05-11T03:16:44.821Z,3.10
2018-05-11T03:17:44.750Z,2.90
2018-05-11T03:18:44.770Z,2.90
2018-05-11T03:19:44.609Z,2.90
2018-05-11T03:20:44.563Z,2.80
2018-05-11T03:21:44.481Z,3.30
2018-05-11T03:22:44.407Z,3.00
2018-05-11T03:23:44.350Z,3.20
2018-05-11T03:24:44.284Z,3.20
2018-05-11T03:25:44.224Z,3.10
2018-05-11T03:26:44.150Z,3.30
2018-05-11T03:27:44.070Z,2.60
2018-05-11T03:28:44.011Z,3.10
2018-05-11T03:29:43.947Z,3.10
2018-05-11T03:30:43.872Z,3.20
2018-05-11T03:31:43.803Z,3.00
2018-05-11T03:32:43.727Z,2.90
2018-05-11T03:33:43.664Z,3.10
2018-05-11T03:34:43.593Z,3.10
2018-05-11T03:35:43.542Z,3.30
2018-05-11T03:36:43.463Z,3.10
2018-05-11T03:37:43.391Z,3.00
2018-05-11T03:38:43.358Z,3.30
2018-05-11T03:39:43.268Z,3.10
2018-05-11T03:40:43.198Z,3.30
2018-05-11T03:41:43.129Z,3.20
2018-05-11T03:42:43.066Z,3.20
2018-05-11T03:43:42.997Z,3.20
2018-05-11T03:44:42.939Z,3.20
2018-05-11T03:45:42.861Z,3.10
2018-05-11T03:46:42.789Z,3.30
2018-05-11T03:47:42.736Z,3.10
2018-05-11T03:48:42.679Z,3.20
2018-05-11T03:49:42.585Z,3.40
2018-05-11T03:50:42.519Z,3.20
2018-05-11T03:51:42.447Z,3.10
2018-05-11T03:52:42.383Z,3.30
2018-05-11T03:53:42.317Z,3.00
2018-05-11T03:54:42.264Z,3.00
2018-05-11T03:55:42.190Z,2.90
2018-05-11T03:56:42.123Z,3.00
2018-05-11T03:57:42.060Z,3.10
2018-05-11T03:58:41.985Z,3.30
2018-05-11T03:59:41.915Z,3.20
2018-05-11T04:00:41.862Z,3.60
2018-05-11T04:01:41.783Z,3.10
2018-05-11T04:02:41.720Z,3.10
2018-05-11T04:03:41.646Z,3.50
2018-05-11T04:04:41.584Z,3.60
2018-05-11T04:05:41.518Z,3.40
2018-05-11T04:06:41.449Z,3.30
2018-05-11T04:07:41.381Z,3.30
2018-05-11T04:08:41.315Z,3.10
2018-05-11T04:09:41.241Z,3.20
2018-05-11T04:10:41.182Z,3.20
2018-05-11T04:11:41.116Z,3.30
2018-05-11T04:12:41.075Z,3.30
2018-05-11T04:13:40.961Z,3.10
2018-05-11T04:14:40.895Z,3.30
2018-05-11T04:15:40.835Z,3.20
2018-05-11T04:16:40.785Z,3.30
2018-05-11T04:17:40.701Z,3.10
2018-05-11T04:18:40.642Z,3.30
2018-05-11T04:19:40.559Z,3.40
2018-05-11T04:20:40.523Z,3.70
2018-05-11T04:21:40.436Z,3.60
2018-05-11T04:22:40.374Z,3.00
2018-05-11T04:23:40.293Z,3.30
2018-05-11T04:24:40.236Z,3.40
2018-05-11T04:25:40.155Z,3.40
2018-05-11T04:26:40.083Z,3.30
2018-05-11T04:27:40.026Z,3.80
2018-05-11T04:28:39.961Z,3.50
2018-05-11T04:29:39.888Z,3.30
2018-05-11T04:30:39.822Z,3.40
2018-05-11T04:31:39.766Z,3.70
2018-05-11T04:32:39.679Z,3.20
2018-05-11T04:33:39.652Z,3.70
2018-05-11T04:34:39.549Z,3.70
2018-05-11T04:35:39.482Z,3.70
2018-05-11T04:36:39.414Z,3.60
2018-05-11T04:37:39.348Z,3.30
2018-05-11T04:38:39.282Z,3.40
2018-05-11T04:39:39.220Z,3.70
2018-05-11T04:40:39.146Z,4.10
2018-05-11T04:41:39.074Z,3.50
2018-05-11T04:42:39.017Z,3.50
2018-05-11T04:43:38.935Z,3.40
2018-05-11T04:44:38.871Z,3.20
2018-05-11T04:45:38.824Z,3.40
2018-05-11T04:46:38.735Z,3.20
2018-05-11T04:47:38.674Z,3.10
2018-05-11T04:48:38.601Z,3.40
2018-05-11T04:49:38.536Z,3.30
2018-05-11T04:50:38.477Z,3.20
2018-05-11T04:51:38.404Z,3.50
2018-05-11T04:52:38.329Z,3.40
2018-05-11T04:53:38.281Z,3.40
2018-05-11T04:54:38.195Z,3.40
2018-05-11T04:55:38.129Z,3.00
2018-05-11T04:56:38.061Z,3.60
2018-05-11T04:57:37.995Z,3.20
2018-05-11T04:58:37.930Z,3.20
2018-05-11T04:59:37.876Z,3.30
2018-05-11T05:00:37.783Z,3.30
2018-05-11T05:01:37.711Z,3.40
2018-05-11T05:02:37.662Z,3.30
2018-05-11T05:03:37.599Z,3.40
2018-05-11T05:04:37.518Z,3.20
2018-05-11T05:05:37.448Z,3.20
2018-05-11T05:06:37.391Z,3.10
2018-05-11T05:07:37.309Z,3.10
2018-05-11T05:08:37.240Z,3.20
2018-05-11T05:09:37.186Z,3.30
2018-05-11T05:10:37.101Z,3.50
2018-05-11T05:11:37.052Z,3.30
2018-05-11T05:12:36.969Z,3.30
2018-05-11T05:13:36.899Z,3.50
2018-05-11T05:14:36.831Z,3.20
2018-05-11T05:15:36.771Z,3.20
2018-05-11T05:16:36.705Z,3.30
2018-05-11T05:17:36.635Z,3.40
2018-05-11T05:18:36.578Z,3.50
2018-05-11T05:19:36.514Z,3.70
2018-05-11T05:20:36.421Z,3.80
2018-05-11T05:21:36.357Z,3.50
2018-05-11T05:22:36.295Z,3.30
2018-05-11T05:23:36.228Z,3.20
2018-05-11T05:24:36.159Z,3.30
2018-05-11T05:25:36.100Z,3.40
2018-05-11T05:26:36.029Z,3.30
2018-05-11T05:27:35.963Z,3.50
2018-05-11T05:28:35.883Z,3.40
2018-05-11T05:29:35.829Z,3.60
2018-05-11T05:30:35.761Z,3.70
2018-05-11T05:31:35.688Z,3.20
2018-05-11T05:32:35.635Z,3.50
2018-05-11T05:33:35.556Z,3.60
2018-05-11T05:34:35.496Z,3.60
2018-05-11T05:35:35.419Z,3.10
2018-05-11T05:36:35.356Z,3.10
2018-05-11T05:37:35.282Z,3.40
2018-05-11T05:38:35.215Z,3.30
2018-05-11T05:39:35.149Z,3.00
2018-05-11T05:40:35.090Z,3.10
2018-05-11T05:41:35.005Z,3.20
2018-05-11T05:42:34.958Z,3.10
2018-05-11T05:43:34.892Z,3.20
2018-05-11T05:44:34.820Z,3.00
2018-05-11T05:45:34.754Z,3.10
2018-05-11T05:46:34.669Z,3.30
2018-05-11T05:47:34.611Z,4.40
2018-05-11T05:48:34.550Z,5.70
2018-05-11T05:49:34.474Z,4.70
2018-05-11T05:50:34.408Z,3.90
2018-05-11T05:51:34.346Z,3.50
2018-05-11T05:52:34.270Z,3.20
2018-05-11T05:53:34.215Z,3.90
2018-05-11T05:54:34.142Z,3.50
2018-05-11T05:55:34.082Z,3.60
2018-05-11T05:56:34.014Z,3.80
2018-05-11T05:57:33.944Z,3.50
2018-05-11T05:58:33.937Z,3.50
2018-05-11T05:59:33.815Z,3.50
2018-05-11T06:00:33.750Z,3.50
2018-05-11T06:01:33.664Z,3.50
2018-05-11T06:02:33.625Z,3.90
2018-05-11T06:03:33.531Z,4.20
2018-05-11T06:04:33.529Z,3.80
2018-05-11T06:05:33.403Z,3.80
2018-05-11T06:06:33.338Z,3.80
2018-05-11T06:07:33.259Z,4.40
2018-05-11T06:08:33.191Z,3.90
2018-05-11T06:09:33.129Z,3.80
2018-05-11T06:10:33.072Z,3.80
2018-05-11T06:11:33.000Z,4.10
2018-05-11T06:12:32.939Z,4.50
2018-05-11T06:13:32.867Z,4.10
2018-05-11T06:14:32.807Z,4.30
2018-05-11T06:15:32.828Z,4.40
2018-05-11T06:16:32.677Z,3.90
2018-05-11T06:17:32.601Z,4.10
2018-05-11T06:18:32.532Z,4.40
2018-05-11T06:19:32.467Z,4.30
2018-05-11T06:20:32.412Z,5.50
2018-05-11T06:21:32.346Z,5.40
2018-05-11T06:22:32.276Z,5.20
2018-05-11T06:23:32.201Z,5.30
2018-05-11T06:24:32.133Z,5.00
2018-05-11T06:25:32.069Z,5.70
2018-05-11T06:26:32.016Z,6.80
2018-05-11T06:27:31.959Z,6.20
2018-05-11T06:28:31.871Z,5.80
2018-05-11T06:29:31.817Z,6.50
2018-05-11T06:30:31.738Z,6.20
2018-05-11T06:31:31.681Z,6.10
2018-05-11T06:32:31.611Z,6.40
2018-05-11T06:33:31.549Z,5.70
2018-05-11T06:34:31.505Z,6.60
2018-05-11T06:35:31.417Z,5.90
2018-05-11T06:36:31.347Z,6.10
2018-05-11T06:37:31.294Z,6.50
2018-05-11T06:38:31.211Z,6.20
2018-05-11T06:39:31.158Z,6.10
2018-05-11T06:40:31.181Z,6.00
2018-05-11T06:41:31.025Z,6.50
2018-05-11T06:42:30.964Z,6.40
2018-05-11T06:43:30.885Z,6.70
2018-05-11T06:44:30.836Z,6.30
2018-05-11T06:45:30.755Z,6.90
2018-05-11T06:46:30.706Z,7.00
2018-05-11T06:47:30.631Z,6.70
2018-05-11T06:48:30.554Z,7.00
2018-05-11T06:49:30.490Z,6.70
2018-05-11T06:50:30.432Z,6.40
2018-05-11T06:51:30.375Z,6.50
2018-05-11T06:52:30.326Z,6.20
2018-05-11T06:53:30.241Z,6.10
2018-05-11T06:54:30.174Z,5.80
2018-05-11T06:55:30.113Z,6.40
2018-05-11T06:56:30.044Z,6.30
2018-05-11T06:57:29.986Z,5.60
2018-05-11T06:58:29.918Z,5.20
2018-05-11T06:59:29.862Z,5.30
2018-05-11T07:00:29.778Z,5.30
2018-05-11T07:01:29.764Z,5.40
2018-05-11T07:02:29.648Z,5.80
2018-05-11T07:03:29.600Z,5.90
2018-05-11T07:04:29.536Z,5.70
2018-05-11T07:05:29.452Z,5.20
2018-05-11T07:06:29.401Z,5.70
2018-05-11T07:07:29.334Z,6.30
2018-05-11T07:08:29.270Z,5.50
2018-05-11T07:09:29.201Z,5.30
2018-05-11T07:10:29.133Z,5.10
2018-05-11T07:11:29.060Z,5.90
2018-05-11T07:12:29.017Z,5.50
2018-05-11T07:13:28.949Z,5.10
2018-05-11T07:14:28.889Z,4.90
2018-05-11T07:15:28.837Z,5.40
2018-05-11T07:16:28.754Z,5.20
2018-05-11T07:17:28.686Z,5.70
2018-05-11T07:18:28.623Z,5.40
2018-05-11T07:19:28.588Z,5.10
2018-05-11T07:20:28.486Z,5.20
2018-05-11T07:21:28.427Z,5.20
2018-05-11T07:22:28.370Z,5.10
2018-05-11T07:23:28.292Z,5.40
2018-05-11T07:24:28.240Z,5.40
2018-05-11T07:25:28.174Z,6.30
2018-05-11T07:26:28.110Z,5.60
2018-05-11T07:27:28.037Z,5.40
2018-05-11T07:28:27.983Z,5.60
2018-05-11T07:29:27.913Z,5.30
2018-05-11T07:30:27.852Z,5.90
2018-05-11T07:31:27.785Z,5.60
2018-05-11T07:32:27.715Z,5.60
2018-05-11T07:33:27.646Z,5.70
2018-05-11T07:34:27.601Z,5.90
2018-05-11T07:35:27.529Z,5.50
2018-05-11T07:36:27.478Z,5.70
2018-05-11T07:37:27.403Z,5.90
2018-05-11T07:38:27.333Z,6.30
2018-05-11T07:39:27.268Z,6.30
2018-05-11T07:40:27.207Z,6.00
2018-05-11T07:41:27.138Z,6.10
2018-05-11T07:42:27.067Z,6.10
2018-05-11T07:43:27.109Z,6.40
2018-05-11T07:44:26.949Z,5.90
2018-05-11T07:45:26.895Z,6.00
2018-05-11T07:46:26.829Z,5.60
2018-05-11T07:47:26.750Z,5.90
2018-05-11T07:48:26.690Z,5.60
2018-05-11T07:49:26.623Z,6.40
2018-05-11T07:50:26.558Z,5.50
2018-05-11T07:51:26.534Z,5.70
2018-05-11T07:52:26.430Z,5.40
2018-05-11T07:53:26.366Z,5.10
2018-05-11T07:54:26.293Z,5.30
2018-05-11T07:55:26.255Z,5.20
2018-05-11T07:56:26.184Z,5.20
2018-05-11T07:57:26.109Z,4.90
2018-05-11T07:58:26.049Z,4.80
2018-05-11T07:59:25.980Z,4.50
2018-05-11T08:00:25.926Z,4.60
2018-05-11T08:01:25.867Z,4.70
2018-05-11T08:02:25.813Z,4.60
2018-05-11T08:03:25.730Z,4.90
2018-05-11T08:04:25.681Z,4.90
2018-05-11T08:05:25.606Z,4.20
2018-05-11T08:06:25.540Z,4.20
2018-05-11T08:07:25.469Z,4.70
2018-05-11T08:08:25.403Z,4.70
2018-05-11T08:09:25.348Z,4.30
2018-05-11T08:10:25.268Z,4.20
2018-05-11T08:11:25.225Z,4.90
2018-05-11T08:12:25.147Z,5.30
2018-05-11T08:13:25.082Z,4.80
2018-05-11T08:14:25.169Z,5.00
2018-05-11T08:15:24.957Z,5.70
2018-05-11T08:16:24.906Z,5.90
2018-05-11T08:17:24.830Z,5.30
2018-05-11T08:18:24.766Z,5.40
2018-05-11T08:19:24.699Z,5.60
2018-05-11T08:20:24.655Z,6.10
2018-05-11T08:21:24.655Z,6.10
2018-05-11T08:22:24.514Z,5.80
2018-05-11T08:23:24.487Z,6.30
2018-05-11T08:24:24.384Z,6.10
2018-05-11T08:25:24.333Z,6.60
2018-05-11T08:26:24.257Z,6.90
2018-05-11T08:27:24.191Z,8.30
2018-05-11T08:28:24.183Z,7.80
2018-05-11T08:29:24.070Z,7.60
2018-05-11T08:30:24.008Z,8.00
2018-05-11T08:31:23.947Z,7.70
2018-05-11T08:32:23.886Z,7.50
2018-05-11T08:33:23.817Z,8.20
2018-05-11T08:34:23.771Z,8.10
2018-05-11T08:35:23.697Z,7.60
2018-05-11T08:36:23.612Z,7.60
2018-05-11T08:37:23.553Z,7.50
2018-05-11T08:38:23.500Z,7.90
2018-05-11T08:39:23.425Z,7.60
2018-05-11T08:40:23.382Z,7.50
2018-05-11T08:41:23.313Z,6.40
2018-05-11T08:42:23.237Z,7.00
2018-05-11T08:43:23.179Z,6.90
2018-05-11T08:44:23.112Z,6.70
2018-05-11T08:45:23.056Z,6.30
2018-05-11T08:46:23.009Z,6.20
2018-05-11T08:47:22.928Z,5.80
2018-05-11T08:48:22.855Z,5.70
2018-05-11T08:49:22.804Z,6.20
2018-05-11T08:50:22.736Z,6.60
2018-05-11T08:51:22.675Z,6.50
2018-05-11T08:52:22.604Z,5.90
2018-05-11T08:53:22.540Z,5.70
2018-05-11T08:54:22.475Z,5.70
2018-05-11T08:55:22.411Z,5.10
2018-05-11T08:56:22.360Z,5.90
2018-05-11T08:57:22.291Z,5.20
2018-05-11T08:58:22.240Z,5.70
2018-05-11T08:59:22.149Z,5.50
2018-05-11T09:00:22.090Z,5.60
2018-05-11T09:01:22.035Z,5.90
2018-05-11T09:02:21.972Z,5.70
2018-05-11T09:03:21.904Z,6.00
2018-05-11T09:04:21.835Z,6.20
2018-05-11T09:05:21.769Z,5.50
2018-05-11T09:06:21.718Z,5.50
2018-05-11T09:07:21.658Z,5.40
2018-05-11T09:08:21.643Z,5.80
2018-05-11T09:09:21.528Z,4.70
2018-05-11T09:10:21.461Z,4.90
2018-05-11T09:11:21.398Z,4.40
2018-05-11T09:12:21.337Z,4.50
2018-05-11T09:13:21.271Z,4.40
2018-05-11T09:14:21.220Z,4.60
2018-05-11T09:15:21.139Z,4.30
2018-05-11T09:16:21.079Z,4.10
2018-05-11T09:17:21.023Z,4.60
2018-05-11T09:18:20.960Z,4.20
2018-05-11T09:19:20.895Z,4.10
2018-05-11T09:20:20.849Z,4.30
2018-05-11T09:21:20.776Z,4.00
2018-05-11T09:22:20.718Z,4.20
2018-05-11T09:23:20.647Z,3.90
2018-05-11T09:24:20.582Z,3.80
2018-05-11T09:25:20.510Z,3.90
2018-05-11T09:26:20.455Z,3.60
2018-05-11T09:27:20.379Z,3.60
2018-05-11T09:28:20.316Z,4.00
2018-05-11T09:29:20.252Z,3.60
2018-05-11T09:30:20.194Z,3.70
2018-05-11T09:31:20.141Z,4.40
2018-05-11T09:32:20.103Z,5.50
2018-05-11T09:33:20.009Z,5.30
2018-05-11T09:34:19.935Z,4.40
2018-05-11T09:35:19.871Z,4.60
2018-05-11T09:36:19.827Z,4.50
2018-05-11T09:37:19.761Z,4.20
2018-05-11T09:38:19.696Z,4.50
2018-05-11T09:39:19.639Z,3.70
2018-05-11T09:40:19.562Z,4.20
2018-05-11T09:41:19.505Z,3.90
2018-05-11T09:42:19.442Z,4.30
2018-05-11T09:43:19.372Z,4.50
2018-05-11T09:44:19.309Z,3.90
2018-05-11T09:45:19.263Z,3.50
2018-05-11T09:46:19.194Z,3.80
2018-05-11T09:47:19.111Z,4.20
2018-05-11T09:48:19.062Z,3.60
2018-05-11T09:49:18.992Z,3.70
2018-05-11T09:50:18.925Z,3.60
2018-05-11T09:51:18.870Z,3.90
2018-05-11T09:52:18.809Z,3.50
2018-05-11T09:53:18.761Z,3.30
2018-05-11T09:54:18.684Z,3.50
2018-05-11T09:55:18.618Z,3.40
2018-05-11T09:56:18.559Z,3.50
2018-05-11T09:57:18.513Z,3.50
2018-05-11T09:58:18.413Z,3.30
2018-05-11T09:59:18.350Z,3.80
2018-05-11T10:00:18.313Z,3.60
2018-05-11T10:01:18.240Z,3.40
2018-05-11T10:02:18.175Z,3.20
2018-05-11T10:03:18.105Z,3.80
2018-05-11T10:04:18.054Z,3.30
2018-05-11T10:05:17.986Z,3.80
2018-05-11T10:06:17.920Z,3.70
2018-05-11T10:07:17.855Z,3.50
2018-05-11T10:08:17.816Z,3.30
2018-05-11T10:09:17.735Z,2.90
2018-05-11T10:10:17.657Z,3.20
2018-05-11T10:11:17.595Z,3.20
2018-05-11T10:12:17.571Z,3.60
2018-05-11T10:13:17.496Z,3.40
2018-05-11T10:14:17.407Z,3.30
2018-05-11T10:15:17.356Z,3.00
2018-05-11T10:16:17.279Z,3.10
2018-05-11T10:17:17.234Z,3.10
2018-05-11T10:18:17.186Z,3.10
2018-05-11T10:19:17.097Z,3.40
2018-05-11T10:20:17.035Z,2.60
2018-05-11T10:21:16.975Z,3.20
2018-05-11T10:22:16.923Z,3.00
2018-05-11T10:23:16.852Z,3.10
2018-05-11T10:24:16.824Z,3.00
2018-05-11T10:25:16.707Z,3.40
2018-05-11T10:26:16.652Z,3.20
2018-05-11T10:27:16.585Z,3.00
2018-05-11T10:28:16.529Z,3.50
2018-05-11T10:29:16.495Z,3.50
2018-05-11T10:30:16.407Z,3.10
2018-05-11T10:31:16.337Z,3.00
2018-05-11T10:32:16.274Z,3.10
2018-05-11T10:33:16.205Z,3.20
2018-05-11T10:34:16.152Z,2.60
2018-05-11T10:35:16.086Z,3.20
2018-05-11T10:36:16.010Z,2.80
2018-05-11T10:37:15.945Z,2.80
2018-05-11T10:38:15.912Z,3.20
2018-05-11T10:39:15.870Z,3.40
2018-05-11T10:40:15.758Z,2.80
2018-05-11T10:41:15.730Z,3.40
2018-05-11T10:42:15.651Z,3.70
2018-05-11T10:43:15.574Z,3.40
2018-05-11T10:44:15.517Z,3.40
2018-05-11T10:45:15.444Z,3.00
2018-05-11T10:46:15.383Z,3.00
2018-05-11T10:47:15.334Z,3.30
2018-05-11T10:48:15.255Z,2.90
2018-05-11T10:49:15.189Z,2.80
2018-05-11T10:50:15.132Z,3.20
2018-05-11T10:51:15.063Z,2.80
2018-05-11T10:52:14.992Z,2.80
2018-05-11T10:53:14.963Z,2.80
2018-05-11T10:54:14.884Z,2.90
2018-05-11T10:55:14.812Z,2.70
2018-05-11T10:56:14.752Z,2.60
2018-05-11T10:57:14.684Z,2.90
2018-05-11T10:58:14.615Z,2.80
2018-05-11T10:59:14.566Z,2.70
2018-05-11T11:00:14.494Z,2.80
2018-05-11T11:01:14.447Z,2.90
2018-05-11T11:02:14.371Z,2.80
2018-05-11T11:03:14.317Z,2.70
2018-05-11T11:04:14.239Z,2.50
2018-05-11T11:05:14.175Z,3.00
2018-05-11T11:06:14.114Z,2.80
2018-05-11T11:07:14.051Z,2.70
2018-05-11T11:08:13.998Z,2.50
2018-05-11T11:09:13.923Z,2.90
2018-05-11T11:10:13.868Z,2.70
2018-05-11T11:11:13.794Z,2.60
2018-05-11T11:12:13.753Z,2.80
2018-05-11T11:13:13.680Z,2.40
2018-05-11T11:14:13.605Z,2.80
2018-05-11T11:15:13.535Z,2.50
2018-05-11T11:16:13.488Z,2.70
2018-05-11T11:17:13.426Z,2.90
2018-05-11T11:18:13.374Z,2.90
2018-05-11T11:19:13.335Z,2.80
2018-05-11T11:20:13.238Z,2.60
2018-05-11T11:21:13.167Z,2.70
2018-05-11T11:22:13.105Z,2.80
2018-05-11T11:23:13.046Z,3.20
2018-05-11T11:24:12.985Z,3.00
2018-05-11T11:25:12.918Z,3.00
2018-05-11T11:26:12.876Z,2.70
2018-05-11T11:27:12.785Z,2.80
2018-05-11T11:28:12.718Z,2.50
2018-05-11T11:29:12.655Z,3.00
2018-05-11T11:30:12.602Z,2.70
2018-05-11T11:31:12.545Z,2.90
2018-05-11T11:32:12.482Z,3.30
2018-05-11T11:33:12.440Z,3.40
2018-05-11T11:34:12.344Z,3.40
2018-05-11T11:35:12.292Z,2.90
2018-05-11T11:36:12.219Z,2.90
2018-05-11T11:37:12.153Z,3.30
2018-05-11T11:38:12.101Z,3.30
2018-05-11T11:39:12.021Z,2.70
2018-05-11T11:40:11.965Z,3.10
2018-05-11T11:41:11.912Z,2.80
2018-05-11T11:42:11.898Z,2.90
2018-05-11T11:43:11.778Z,3.00
2018-05-11T11:44:11.715Z,2.90
2018-05-11T11:45:11.651Z,3.20
2018-05-11T11:46:11.596Z,3.00
2018-05-11T11:47:11.543Z,2.80
2018-05-11T11:48:11.506Z,3.10
2018-05-11T11:49:11.415Z,2.70
2018-05-11T11:50:11.350Z,3.00
2018-05-11T11:51:11.269Z,3.20
2018-05-11T11:52:11.281Z,2.90
2018-05-11T11:53:11.142Z,2.90
2018-05-11T11:54:11.087Z,2.90
2018-05-11T11:55:11.030Z,3.30
2018-05-11T11:56:10.970Z,3.10
2018-05-11T11:57:10.912Z,3.00
2018-05-11T11:58:10.827Z,2.70
2018-05-11T11:59:10.763Z,3.50
2018-05-11T12:00:10.699Z,3.10
2018-05-11T12:01:10.639Z,3.30
2018-05-11T12:02:10.591Z,3.00
2018-05-11T12:03:10.520Z,3.80
2018-05-11T12:04:10.469Z,3.70
2018-05-11T12:05:10.401Z,3.50
2018-05-11T12:06:10.377Z,3.20
2018-05-11T12:07:10.273Z,3.40
2018-05-11T12:08:10.205Z,3.00
2018-05-11T12:09:10.151Z,3.50
2018-05-11T12:10:10.092Z,3.20
2018-05-11T12:11:10.032Z,3.30
2018-05-11T12:12:09.966Z,3.50
2018-05-11T12:13:09.889Z,3.20
2018-05-11T12:14:09.834Z,3.20
2018-05-11T12:15:09.808Z,3.60
2018-05-11T12:16:09.701Z,3.00
2018-05-11T12:17:09.636Z,3.00
2018-05-11T12:18:09.589Z,3.90
2018-05-11T12:19:09.519Z,3.20
2018-05-11T12:20:09.489Z,3.00
2018-05-11T12:21:09.401Z,3.10
2018-05-11T12:22:09.339Z,3.20
2018-05-11T12:23:09.271Z,3.30
2018-05-11T12:24:09.220Z,3.40
2018-05-11T12:25:09.144Z,3.10
2018-05-11T12:26:09.078Z,3.30
2018-05-11T12:27:09.035Z,2.90
2018-05-11T12:28:08.972Z,3.00
2018-05-11T12:29:08.906Z,3.30
2018-05-11T12:30:08.835Z,3.00
2018-05-11T12:31:08.771Z,3.30
2018-05-11T12:32:08.706Z,3.00
2018-05-11T12:33:08.647Z,2.90
2018-05-11T12:34:08.581Z,3.10
2018-05-11T12:35:08.526Z,3.30
2018-05-11T12:36:08.470Z,3.20
2018-05-11T12:37:08.386Z,3.30
2018-05-11T12:38:08.342Z,3.10
2018-05-11T12:39:08.288Z,3.40
2018-05-11T12:40:08.215Z,3.50
2018-05-11T12:41:08.188Z,3.20
2018-05-11T12:42:08.080Z,3.50
2018-05-11T12:43:08.026Z,3.20
2018-05-11T12:44:07.964Z,2.70
2018-05-11T12:45:07.917Z,3.00
2018-05-11T12:46:07.845Z,3.00
2018-05-11T12:47:07.769Z,3.20
2018-05-11T12:48:07.710Z,3.00
2018-05-11T12:49:07.672Z,3.10
2018-05-11T12:50:07.670Z,3.60
2018-05-11T12:51:07.522Z,3.40
2018-05-11T12:52:07.465Z,3.40
2018-05-11T12:53:07.393Z,3.00
2018-05-11T12:54:07.338Z,3.00
2018-05-11T12:55:07.275Z,2.90
2018-05-11T12:56:07.211Z,3.20
2018-05-11T12:57:07.151Z,2.90
2018-05-11T12:58:07.087Z,3.10
2018-05-11T12:59:07.034Z,3.20
2018-05-11T13:00:06.968Z,3.20
2018-05-11T13:01:06.906Z,3.10
2018-05-11T13:02:06.838Z,3.00
2018-05-11T13:03:06.771Z,3.00
2018-05-11T13:04:07.312Z,3.10
2018-05-11T13:05:07.340Z,3.20
2018-05-11T13:06:07.833Z,3.10
2018-05-11T13:07:07.355Z,3.10
2018-05-11T13:08:07.343Z,3.10
2018-05-11T13:09:07.348Z,3.30
2018-05-11T13:10:06.352Z,3.10
2018-05-11T13:11:06.275Z,3.00
2018-05-11T13:12:06.221Z,2.90
2018-05-11T13:13:06.150Z,3.20
2018-05-11T13:14:06.095Z,3.20
2018-05-11T13:15:06.035Z,3.30
2018-05-11T13:16:05.968Z,3.00
2018-05-11T13:17:05.908Z,3.10
2018-05-11T13:18:05.845Z,3.20